Time;durP1;ratioP1;P1;durP2;ratioP2;P2;SDS_P1;SDS_P2;PMS_P1;PMS_P2;Temp;Humidity;BMP_temperature;BMP_pressure;BME280_temperature;BME280_humidity;BME280_pressure;Samples;Min_cycle;Max_cycle;Signal;HPM_P1;HPM_P2
2021/10/03 00:01:12;;;;;;;8.50;5.57;;;19.10;99.90;;;;;;5051478;28;20201;-65
2021/10/03 00:03:41;;;;;;;6.00;5.60;;;19.10;99.90;;;;;;5067896;28;20197;-68
2021/10/03 00:06:08;;;;;;;6.00;5.47;;;19.20;99.90;;;;;;5071877;28;20209;-65
2021/10/03 00:08:34;;;;;;;8.97;5.20;;;19.20;99.90;;;;;;5056356;28;20194;-66
2021/10/03 00:11:00;;;;;;;5.93;5.27;;;19.20;99.90;;;;;;5051340;28;20203;-66
2021/10/03 00:13:27;;;;;;;5.20;4.90;;;19.20;99.90;;;;;;5066350;28;20201;-66
2021/10/03 00:15:54;;;;;;;5.60;5.30;;;19.20;99.90;;;;;;5070452;28;20182;-67
2021/10/03 00:18:21;;;;;;;5.40;5.10;;;19.20;99.90;;;;;;5071770;28;20253;-67
2021/10/03 00:20:47;;;;;;;5.80;5.40;;;19.20;99.90;;;;;;5070735;28;20600;-67
2021/10/03 00:23:13;;;;;;;5.40;5.10;;;19.20;99.90;;;;;;5071508;28;20961;-67
2021/10/03 00:25:39;;;;;;;5.60;5.20;;;19.20;99.90;;;;;;5071891;28;20166;-66
2021/10/03 00:28:07;;;;;;;5.80;5.30;;;19.20;99.90;;;;;;5051588;28;20187;-66
2021/10/03 00:30:38;;;;;;;5.43;5.13;;;19.20;99.90;;;;;;5051100;28;20237;-66
2021/10/03 00:33:04;;;;;;;5.80;5.50;;;19.20;99.90;;;;;;5069758;28;20189;-66
2021/10/03 00:35:30;;;;;;;5.73;5.40;;;19.20;99.90;;;;;;5071528;28;20177;-66
2021/10/03 00:37:56;;;;;;;5.93;5.53;;;19.20;99.90;;;;;;5070954;28;20185;-66
2021/10/03 00:40:22;;;;;;;6.70;6.30;;;19.20;99.90;;;;;;5071207;28;20210;-66
2021/10/03 00:42:48;;;;;;;6.20;5.80;;;19.20;99.90;;;;;;5053498;28;20185;-66
2021/10/03 00:45:16;;;;;;;5.20;4.90;;;19.20;99.90;;;;;;5057446;28;20186;-66
2021/10/03 00:47:42;;;;;;;5.30;5.00;;;19.20;99.90;;;;;;5072343;28;20174;-66
2021/10/03 00:50:09;;;;;;;5.53;5.23;;;19.20;99.90;;;;;;5066372;28;20206;-66
2021/10/03 00:52:35;;;;;;;7.80;5.33;;;19.20;99.90;;;;;;5051347;28;20181;-67
2021/10/03 00:55:02;;;;;;;4.97;4.73;;;19.20;99.90;;;;;;5054248;28;20182;-67
2021/10/03 00:57:28;;;;;;;5.57;5.13;;;19.20;99.90;;;;;;5071385;28;20210;-67
2021/10/03 00:59:54;;;;;;;5.90;5.47;;;19.10;99.90;;;;;;5068437;28;20228;-67
2021/10/03 01:02:19;;;;;;;5.40;5.10;;;19.10;99.90;;;;;;5055131;28;20641;-67
2021/10/03 01:04:45;;;;;;;5.60;5.30;;;19.10;99.90;;;;;;5071280;28;20202;-67
2021/10/03 01:07:14;;;;;;;5.33;5.03;;;19.10;99.90;;;;;;5067196;28;20236;-66
2021/10/03 01:09:40;;;;;;;6.03;5.53;;;19.00;99.90;;;;;;5073573;28;20229;-68
2021/10/03 01:12:05;;;;;;;5.60;5.30;;;19.00;99.90;;;;;;5056915;28;20221;-67
2021/10/03 01:14:33;;;;;;;5.87;5.47;;;19.00;99.90;;;;;;5063171;28;20185;-66
2021/10/03 01:16:59;;;;;;;6.13;5.53;;;19.00;99.90;;;;;;5073885;28;20166;-66
2021/10/03 01:19:25;;;;;;;5.87;5.47;;;19.00;99.90;;;;;;5054741;28;20208;-65
2021/10/03 01:21:50;;;;;;;5.70;5.40;;;19.00;99.90;;;;;;5053705;28;20206;-66
2021/10/03 01:24:16;;;;;;;5.50;5.20;;;18.90;99.90;;;;;;5073967;28;20209;-68
2021/10/03 01:26:43;;;;;;;5.43;5.03;;;18.90;99.90;;;;;;5074953;28;20213;-65
2021/10/03 01:29:11;;;;;;;5.40;5.00;;;19.00;99.90;;;;;;5056772;28;20178;-68
2021/10/03 01:31:37;;;;;;;5.20;4.90;;;19.00;99.90;;;;;;5069262;28;20185;-64
2021/10/03 01:34:03;;;;;;;5.67;5.37;;;18.90;99.90;;;;;;5090247;28;20178;-65
2021/10/03 01:36:28;;;;;;;6.00;5.47;;;18.90;99.90;;;;;;5061855;28;20179;-67
2021/10/03 01:38:55;;;;;;;5.33;5.03;;;18.90;99.90;;;;;;5052423;28;20178;-65
2021/10/03 01:41:20;;;;;;;5.53;5.13;;;18.90;99.90;;;;;;5064124;28;20210;-65
2021/10/03 01:43:46;;;;;;;6.20;5.70;;;18.90;99.90;;;;;;5074661;28;20300;-65
2021/10/03 01:46:12;;;;;;;5.07;4.77;;;18.80;99.90;;;;;;5065401;28;20544;-65
2021/10/03 01:48:38;;;;;;;5.23;4.80;;;18.80;99.90;;;;;;5058844;28;20194;-65
2021/10/03 01:51:06;;;;;;;5.23;4.83;;;18.80;99.90;;;;;;5073793;28;20217;-64
2021/10/03 01:53:35;;;;;;;4.67;4.47;;;18.80;99.90;;;;;;5073709;28;20181;-64
2021/10/03 01:56:04;;;;;;;5.43;4.97;;;18.70;99.90;;;;;;5074296;28;20544;-66
2021/10/03 01:58:32;;;;;;;5.20;4.70;;;18.70;99.90;;;;;;5071204;28;20182;-66
2021/10/03 02:01:02;;;;;;;5.50;5.20;;;18.70;99.90;;;;;;5053818;28;20202;-66
2021/10/03 02:03:28;;;;;;;5.57;5.27;;;18.60;99.90;;;;;;5056500;28;20177;-64
2021/10/03 02:05:54;;;;;;;6.00;5.70;;;18.50;99.90;;;;;;5073416;28;20269;-65
2021/10/03 02:08:20;;;;;;;5.90;5.50;;;18.50;99.90;;;;;;5073060;28;20207;-65
2021/10/03 02:10:51;;;;;;;5.63;5.27;;;18.40;99.90;;;;;;5064454;28;20302;-64
2021/10/03 02:13:19;;;;;;;5.73;5.40;;;18.30;99.90;;;;;;5062964;28;20915;-64
2021/10/03 02:15:46;;;;;;;6.20;5.70;;;18.20;99.90;;;;;;5053989;28;20167;-65
2021/10/03 02:18:14;;;;;;;6.50;5.97;;;18.20;99.90;;;;;;5063666;28;20300;-66
2021/10/03 02:20:43;;;;;;;6.43;6.03;;;18.20;99.90;;;;;;5071451;28;20202;-66
2021/10/03 02:23:10;;;;;;;5.60;5.30;;;18.20;99.90;;;;;;5065310;28;20179;-65
2021/10/03 02:25:43;;;;;;;6.00;5.70;;;18.20;99.90;;;;;;5053968;28;20174;-65
2021/10/03 02:28:20;;;;;;;6.60;6.20;;;18.10;99.90;;;;;;5057242;28;20675;-66
2021/10/03 02:30:48;;;;;;;5.90;5.50;;;18.10;99.90;;;;;;5053265;28;20229;-65
2021/10/03 02:33:14;;;;;;;6.53;6.13;;;18.00;99.90;;;;;;5064526;28;20216;-66
2021/10/03 02:35:41;;;;;;;6.90;6.30;;;18.00;99.90;;;;;;5073652;28;20198;-66
2021/10/03 02:38:10;;;;;;;6.20;5.80;;;18.00;99.90;;;;;;5063515;28;20237;-67
2021/10/03 02:40:36;;;;;;;6.87;6.27;;;18.00;99.90;;;;;;5053331;28;20199;-66
2021/10/03 02:43:08;;;;;;;7.03;6.63;;;18.00;99.90;;;;;;5053528;28;20213;-65
2021/10/03 02:45:37;;;;;;;7.03;6.53;;;18.00;99.90;;;;;;5053409;28;20171;-65
2021/10/03 02:48:03;;;;;;;6.83;6.33;;;17.90;99.90;;;;;;5073046;28;20196;-65
2021/10/03 02:50:29;;;;;;;6.83;6.43;;;17.90;99.90;;;;;;5072645;28;20241;-65
2021/10/03 02:52:54;;;;;;;6.60;6.20;;;17.90;99.90;;;;;;5055243;28;20636;-65
2021/10/03 02:55:20;;;;;;;7.67;7.03;;;17.90;99.90;;;;;;5060292;28;20364;-65
2021/10/03 02:57:46;;;;;;;6.63;6.13;;;17.90;99.90;;;;;;5073337;28;20253;-65
2021/10/03 03:00:13;;;;;;;6.47;6.07;;;17.90;99.90;;;;;;5055846;28;20198;-66
2021/10/03 03:02:38;;;;;;;7.20;6.57;;;17.90;99.90;;;;;;5053281;28;20228;-67
2021/10/03 03:05:08;;;;;;;7.33;6.73;;;18.00;99.90;;;;;;5067777;28;20186;-65
2021/10/03 03:07:34;;;;;;;6.80;6.10;;;18.00;99.90;;;;;;5073293;28;20261;-65
2021/10/03 03:10:00;;;;;;;6.50;6.10;;;18.00;99.90;;;;;;5057026;28;20309;-66
2021/10/03 03:12:25;;;;;;;7.10;6.70;;;18.00;99.90;;;;;;5068829;28;20612;-66
2021/10/03 03:14:51;;;;;;;6.53;6.13;;;18.00;99.90;;;;;;5060559;28;20232;-67
2021/10/03 03:17:20;;;;;;;6.30;5.80;;;18.00;99.90;;;;;;5058096;28;20678;-66
2021/10/03 03:19:46;;;;;;;6.40;6.00;;;18.10;99.90;;;;;;5071028;28;20198;-66
2021/10/03 03:22:12;;;;;;;6.53;6.13;;;18.10;99.90;;;;;;5068719;28;20526;-66
2021/10/03 03:24:39;;;;;;;6.70;6.20;;;18.10;99.90;;;;;;5051631;28;20179;-66
2021/10/03 03:27:05;;;;;;;6.90;6.40;;;18.20;99.90;;;;;;5054940;28;20190;-66
2021/10/03 03:29:32;;;;;;;6.27;5.87;;;18.20;99.90;;;;;;5070728;28;20221;-65
2021/10/03 03:31:58;;;;;;;6.80;6.30;;;18.20;99.90;;;;;;5070260;28;20181;-65
2021/10/03 03:34:24;;;;;;;6.53;6.13;;;18.20;99.90;;;;;;5064385;28;20174;-65
2021/10/03 03:36:49;;;;;;;6.80;6.30;;;18.20;99.90;;;;;;5070607;28;20178;-65
2021/10/03 03:39:15;;;;;;;6.70;6.20;;;18.30;99.90;;;;;;5072085;28;20686;-65
2021/10/03 03:41:41;;;;;;;6.60;6.00;;;18.30;99.90;;;;;;5071667;28;20210;-66
2021/10/03 03:44:06;;;;;;;7.03;6.53;;;18.30;99.90;;;;;;5059257;28;20175;-65
2021/10/03 03:46:32;;;;;;;6.40;5.80;;;18.40;99.90;;;;;;5063556;28;20239;-65
2021/10/03 03:48:57;;;;;;;7.07;6.40;;;18.40;99.90;;;;;;5071980;28;20203;-65
2021/10/03 03:51:23;;;;;;;6.60;6.20;;;18.40;99.90;;;;;;5062577;28;20305;-65
2021/10/03 03:53:49;;;;;;;6.97;6.40;;;18.50;99.90;;;;;;5050978;28;20182;-65
2021/10/03 03:56:14;;;;;;;7.03;6.40;;;18.50;99.90;;;;;;5053042;28;20186;-65
2021/10/03 03:58:40;;;;;;;6.97;6.43;;;18.50;99.90;;;;;;5052067;28;20583;-66
2021/10/03 04:01:06;;;;;;;6.43;6.03;;;18.50;99.90;;;;;;5056922;28;20205;-66
2021/10/03 04:03:32;;;;;;;7.17;6.47;;;18.60;99.90;;;;;;5070789;28;20182;-65
2021/10/03 04:05:57;;;;;;;6.97;6.43;;;18.60;99.90;;;;;;5067801;28;20186;-65
2021/10/03 04:08:23;;;;;;;7.20;6.70;;;18.70;99.90;;;;;;5051840;28;20186;-65
2021/10/03 04:10:50;;;;;;;7.70;7.10;;;18.70;99.90;;;;;;5063013;28;20237;-65
2021/10/03 04:13:17;;;;;;;6.70;6.30;;;18.70;99.90;;;;;;5071704;28;20185;-65
2021/10/03 04:15:43;;;;;;;7.83;7.13;;;18.70;99.90;;;;;;5068360;28;20281;-65
2021/10/03 04:18:08;;;;;;;7.03;6.53;;;18.70;99.90;;;;;;5070325;28;20269;-65
2021/10/03 04:20:34;;;;;;;7.57;6.97;;;18.70;99.90;;;;;;5061659;28;20206;-65
2021/10/03 04:22:59;;;;;;;7.27;6.57;;;18.80;99.90;;;;;;5050574;28;20178;-65
2021/10/03 04:25:25;;;;;;;7.03;6.43;;;18.80;99.90;;;;;;5057660;28;20189;-65
2021/10/03 04:27:51;;;;;;;7.87;6.47;;;18.80;99.90;;;;;;5071703;28;20197;-65
2021/10/03 04:30:16;;;;;;;7.40;6.80;;;18.80;99.90;;;;;;5066591;28;20210;-64
2021/10/03 04:32:42;;;;;;;7.33;6.60;;;18.90;99.90;;;;;;5051737;28;20224;-65
2021/10/03 04:35:08;;;;;;;7.80;7.23;;;18.90;99.90;;;;;;5071425;28;20170;-65
2021/10/03 04:37:34;;;;;;;7.53;6.83;;;19.00;99.90;;;;;;5070216;28;20180;-66
2021/10/03 04:40:00;;;;;;;7.00;6.50;;;19.00;99.90;;;;;;5052261;28;20213;-66
2021/10/03 04:42:26;;;;;;;7.20;6.70;;;19.10;99.90;;;;;;5050187;28;20738;-66
2021/10/03 04:44:51;;;;;;;8.00;6.57;;;19.00;99.90;;;;;;5067574;28;20663;-66
2021/10/03 04:47:17;;;;;;;7.37;6.77;;;19.00;99.90;;;;;;5071341;28;20184;-66
2021/10/03 04:49:43;;;;;;;7.50;6.90;;;19.10;99.90;;;;;;5055549;28;20217;-66
2021/10/03 04:52:08;;;;;;;7.57;6.80;;;19.00;99.90;;;;;;5055542;28;20253;-66
2021/10/03 04:54:34;;;;;;;7.23;6.70;;;19.10;99.90;;;;;;5071377;28;20170;-66
2021/10/03 04:57:00;;;;;;;7.40;6.83;;;19.00;99.90;;;;;;5068927;28;20197;-66
2021/10/03 04:59:26;;;;;;;7.60;6.90;;;19.10;99.90;;;;;;5050790;28;20186;-66
2021/10/03 05:01:51;;;;;;;7.90;7.20;;;19.10;99.90;;;;;;5051838;28;20202;-66
2021/10/03 05:04:17;;;;;;;7.50;6.90;;;19.10;99.90;;;;;;5071308;28;20176;-66
2021/10/03 05:06:43;;;;;;;7.67;7.07;;;19.10;99.90;;;;;;5071276;28;20171;-67
2021/10/03 05:09:08;;;;;;;7.67;7.07;;;19.20;99.90;;;;;;5051446;28;20174;-66
2021/10/03 05:11:34;;;;;;;7.97;6.83;;;19.20;99.90;;;;;;5051044;28;20282;-65
2021/10/03 05:14:05;;;;;;;8.30;7.13;;;19.20;99.90;;;;;;5067960;28;20257;-67
2021/10/03 05:16:31;;;;;;;7.00;6.50;;;19.30;99.90;;;;;;5062975;28;20236;-67
2021/10/03 05:18:58;;;;;;;7.70;7.00;;;19.30;99.90;;;;;;5051038;28;20179;-64
2021/10/03 05:21:23;;;;;;;8.07;7.37;;;19.30;99.90;;;;;;5053573;28;20573;-66
2021/10/03 05:23:49;;;;;;;8.67;6.70;;;19.20;99.90;;;;;;5059051;28;20257;-66
2021/10/03 05:26:15;;;;;;;7.83;7.03;;;19.30;99.90;;;;;;5066908;28;20186;-66
2021/10/03 05:28:40;;;;;;;6.93;6.33;;;19.30;99.90;;;;;;5051075;28;20539;-66
2021/10/03 05:31:06;;;;;;;6.97;6.47;;;19.30;99.90;;;;;;5052420;28;20198;-65
2021/10/03 05:33:32;;;;;;;6.50;6.10;;;19.30;99.90;;;;;;5071016;28;20655;-65
2021/10/03 05:35:59;;;;;;;7.70;7.00;;;19.30;99.90;;;;;;5070424;28;20212;-65
2021/10/03 05:38:24;;;;;;;7.80;7.20;;;19.30;99.90;;;;;;5051131;28;20590;-66
2021/10/03 05:40:50;;;;;;;7.80;7.10;;;19.40;99.90;;;;;;5050723;28;20269;-65
2021/10/03 05:43:16;;;;;;;7.67;7.07;;;19.30;99.90;;;;;;5069044;28;20562;-66
2021/10/03 05:45:41;;;;;;;7.70;7.10;;;19.40;99.90;;;;;;5060779;28;20178;-65
2021/10/03 05:48:07;;;;;;;7.63;6.93;;;19.40;99.90;;;;;;5050763;28;20183;-64
2021/10/03 05:50:33;;;;;;;7.40;6.77;;;19.40;99.90;;;;;;5049356;28;20297;-66
2021/10/03 05:52:59;;;;;;;8.17;7.47;;;19.40;99.90;;;;;;5066040;28;20205;-65
2021/10/03 05:55:24;;;;;;;8.30;7.57;;;19.40;99.90;;;;;;5051637;28;20182;-67
2021/10/03 05:57:50;;;;;;;7.90;7.20;;;19.30;99.90;;;;;;5052979;28;20171;-66
2021/10/03 06:00:16;;;;;;;7.33;6.73;;;19.30;99.90;;;;;;5056360;28;20229;-66
2021/10/03 06:02:41;;;;;;;8.60;7.80;;;19.20;99.90;;;;;;5074187;28;20170;-66
2021/10/03 06:05:07;;;;;;;8.00;7.40;;;19.20;99.90;;;;;;5071310;28;20251;-67
2021/10/03 06:07:33;;;;;;;7.70;7.00;;;19.20;99.90;;;;;;5053997;28;20175;-68
2021/10/03 06:09:59;;;;;;;8.77;8.13;;;19.20;99.90;;;;;;5053433;28;20765;-65
2021/10/03 06:12:25;;;;;;;8.50;7.63;;;19.30;99.90;;;;;;5073054;28;20209;-66
2021/10/03 06:14:50;;;;;;;8.07;7.37;;;19.30;99.90;;;;;;5068379;28;20174;-67
2021/10/03 06:17:16;;;;;;;7.83;7.23;;;19.40;99.90;;;;;;5053774;28;20167;-67
2021/10/03 06:19:42;;;;;;;7.97;7.17;;;19.40;99.90;;;;;;5059903;28;20224;-67
2021/10/03 06:22:07;;;;;;;7.90;7.17;;;19.50;99.90;;;;;;5073637;28;20272;-66
2021/10/03 06:24:33;;;;;;;7.63;7.00;;;19.50;99.90;;;;;;5073171;28;20340;-66
2021/10/03 06:26:59;;;;;;;8.40;7.70;;;19.50;99.90;;;;;;5072322;28;20182;-66
2021/10/03 06:29:25;;;;;;;9.00;8.20;;;19.50;99.90;;;;;;5068604;28;20174;-67
2021/10/03 06:31:50;;;;;;;8.70;7.20;;;19.50;99.90;;;;;;5052185;28;20198;-65
2021/10/03 06:34:16;;;;;;;8.43;7.83;;;19.40;99.90;;;;;;5061177;28;20170;-67
2021/10/03 06:36:43;;;;;;;7.57;6.93;;;19.40;99.90;;;;;;5066614;28;20257;-67
2021/10/03 06:39:09;;;;;;;7.93;7.33;;;19.50;99.90;;;;;;5053027;28;20257;-68
2021/10/03 06:41:34;;;;;;;7.77;6.97;;;19.60;99.90;;;;;;5070476;28;20256;-65
2021/10/03 06:44:00;;;;;;;8.53;7.87;;;19.60;99.90;;;;;;5071732;28;20698;-66
2021/10/03 06:46:26;;;;;;;8.33;7.57;;;19.60;99.90;;;;;;5057423;28;20206;-66
2021/10/03 06:48:51;;;;;;;8.17;7.37;;;19.70;99.90;;;;;;5054313;28;20266;-67
2021/10/03 06:51:17;;;;;;;7.67;7.13;;;19.70;99.90;;;;;;5052810;28;20609;-68
2021/10/03 06:53:43;;;;;;;7.30;6.70;;;19.70;99.90;;;;;;5057600;28;20174;-68
2021/10/03 06:56:11;;;;;;;8.13;7.40;;;19.70;99.90;;;;;;5072996;28;20546;-67
2021/10/03 06:58:37;;;;;;;7.50;6.90;;;19.50;99.90;;;;;;5068205;28;20171;-66
2021/10/03 07:01:04;;;;;;;7.13;6.63;;;19.40;99.90;;;;;;5052574;28;20559;-68
2021/10/03 07:03:30;;;;;;;9.63;8.93;;;19.30;99.90;;;;;;5052243;28;20190;-66
2021/10/03 07:05:56;;;;;;;8.63;8.03;;;19.20;99.90;;;;;;5071404;28;20557;-65
2021/10/03 07:08:21;;;;;;;9.43;7.50;;;19.00;99.90;;;;;;5072805;28;20185;-66
2021/10/03 07:10:47;;;;;;;8.10;7.23;;;18.90;99.90;;;;;;5072601;28;20202;-65
2021/10/03 07:13:12;;;;;;;7.57;6.97;;;18.80;99.90;;;;;;5071641;28;20170;-68
2021/10/03 07:15:38;;;;;;;7.60;7.00;;;18.70;99.90;;;;;;5072360;28;20646;-67
2021/10/03 07:18:04;;;;;;;8.00;7.30;;;18.60;99.90;;;;;;5059577;28;20183;-67
2021/10/03 07:20:30;;;;;;;8.13;7.53;;;18.60;99.90;;;;;;5051351;28;20252;-68
2021/10/03 07:22:56;;;;;;;7.77;7.17;;;18.60;99.90;;;;;;5051765;28;20652;-66
2021/10/03 07:25:23;;;;;;;8.23;7.50;;;18.50;99.90;;;;;;5052883;28;20202;-68
2021/10/03 07:27:48;;;;;;;8.20;7.60;;;18.50;99.90;;;;;;5052788;28;20174;-66
2021/10/03 07:30:15;;;;;;;8.50;7.63;;;18.60;99.90;;;;;;5052245;28;20549;-67
2021/10/03 07:32:42;;;;;;;7.87;7.20;;;18.60;99.90;;;;;;5051983;28;20618;-69
2021/10/03 07:35:08;;;;;;;7.53;7.03;;;18.50;99.90;;;;;;5068074;28;20178;-68
2021/10/03 07:37:34;;;;;;;8.17;7.30;;;18.40;99.90;;;;;;5071256;28;20567;-67
2021/10/03 07:40:01;;;;;;;7.80;7.30;;;18.40;99.90;;;;;;5072179;28;20215;-67
2021/10/03 07:42:27;;;;;;;8.33;7.53;;;18.40;99.90;;;;;;5086307;28;20643;-68
2021/10/03 07:44:53;;;;;;;9.20;8.40;;;18.40;99.90;;;;;;5071067;28;20226;-67
2021/10/03 07:47:18;;;;;;;8.33;7.67;;;18.30;99.90;;;;;;5070713;28;20189;-68
2021/10/03 07:49:44;;;;;;;8.37;7.77;;;18.30;99.90;;;;;;5070649;28;20248;-68
2021/10/03 07:52:09;;;;;;;8.00;7.40;;;18.20;99.90;;;;;;5070383;28;20182;-67
2021/10/03 07:54:35;;;;;;;8.33;7.57;;;18.30;99.90;;;;;;5052336;28;20175;-67
2021/10/03 07:57:01;;;;;;;8.17;7.40;;;18.40;99.90;;;;;;5052064;28;20537;-66
2021/10/03 07:59:26;;;;;;;7.97;7.37;;;18.50;99.90;;;;;;5071823;28;20643;-68
2021/10/03 08:01:52;;;;;;;7.53;7.03;;;18.60;99.90;;;;;;5072038;28;20181;-67
2021/10/03 08:04:17;;;;;;;7.63;7.03;;;18.70;99.90;;;;;;5052263;28;20299;-67
2021/10/03 08:06:43;;;;;;;8.47;7.77;;;18.80;99.90;;;;;;5050877;28;20175;-67
2021/10/03 08:09:08;;;;;;;8.33;7.50;;;18.70;99.90;;;;;;5050681;28;20262;-67
2021/10/03 08:11:34;;;;;;;7.80;7.00;;;18.70;99.90;;;;;;5051415;28;20572;-67
2021/10/03 08:14:00;;;;;;;8.57;7.97;;;18.70;99.90;;;;;;5051023;28;20260;-67
2021/10/03 08:16:26;;;;;;;8.40;7.80;;;18.70;99.90;;;;;;5060146;28;20185;-67
2021/10/03 08:18:51;;;;;;;7.20;6.57;;;18.70;99.90;;;;;;5071878;28;20174;-66
2021/10/03 08:21:17;;;;;;;8.57;7.87;;;18.80;99.90;;;;;;5064547;28;20218;-68
2021/10/03 08:23:44;;;;;;;7.50;6.90;;;18.80;99.90;;;;;;5052134;28;20177;-67
2021/10/03 08:26:10;;;;;;;7.63;7.03;;;18.80;99.90;;;;;;5055115;28;20181;-66
2021/10/03 08:28:36;;;;;;;7.90;7.30;;;18.90;99.90;;;;;;5071934;28;20200;-66
2021/10/03 08:31:01;;;;;;;7.53;6.93;;;18.80;99.90;;;;;;5067287;28;20491;-68
2021/10/03 08:33:27;;;;;;;7.53;6.90;;;18.80;99.90;;;;;;5051998;28;20190;-67
2021/10/03 08:35:53;;;;;;;8.17;7.37;;;18.70;99.90;;;;;;5052452;28;20250;-67
2021/10/03 08:38:18;;;;;;;8.27;7.60;;;18.70;99.90;;;;;;5070330;28;20763;-67
2021/10/03 08:40:45;;;;;;;8.13;7.40;;;18.70;99.90;;;;;;5071363;28;20190;-67
2021/10/03 08:43:10;;;;;;;7.87;7.07;;;18.70;99.90;;;;;;5052091;28;20202;-67
2021/10/03 08:45:42;;;;;;;7.93;7.43;;;18.70;99.90;;;;;;5056496;28;20267;-65
2021/10/03 08:48:09;;;;;;;8.13;7.43;;;18.70;99.90;;;;;;5051717;28;20174;-67
2021/10/03 08:50:35;;;;;;;8.10;7.30;;;18.70;99.90;;;;;;5065300;28;20206;-68
2021/10/03 08:53:01;;;;;;;8.30;7.70;;;18.60;99.90;;;;;;5071498;28;20177;-67
2021/10/03 08:55:26;;;;;;;8.37;7.67;;;18.60;99.90;;;;;;5058899;28;20227;-67
2021/10/03 08:57:52;;;;;;;8.43;7.73;;;18.60;99.90;;;;;;5050400;28;20186;-66
2021/10/03 09:00:20;;;;;;;8.30;7.60;;;18.60;99.90;;;;;;5061896;28;20832;-67
2021/10/03 09:03:06;;;;;;;8.03;7.33;;;18.70;99.90;;;;;;5071711;28;20162;-67
2021/10/03 09:05:35;;;;;;;8.17;7.57;;;18.70;99.90;;;;;;5059132;28;20265;-65
2021/10/03 09:08:10;;;;;;;7.93;7.23;;;18.80;99.90;;;;;;5051398;28;20545;-65
2021/10/03 09:10:54;;;;;;;7.40;6.90;;;18.90;99.90;;;;;;5062700;28;20213;-67
2021/10/03 09:13:30;;;;;;;7.47;6.97;;;19.00;99.90;;;;;;5054865;28;20179;-67
2021/10/03 09:16:43;;;;;;;8.10;7.47;;;19.00;99.90;;;;;;5074105;28;20216;-67
2021/10/03 09:19:12;;;;;;;7.63;7.13;;;19.10;99.90;;;;;;5052825;28;20190;-67
2021/10/03 09:21:40;;;;;;;7.90;7.30;;;19.20;99.90;;;;;;5070899;28;20201;-67
2021/10/03 09:24:19;;;;;;;8.17;7.67;;;19.20;99.90;;;;;;5070496;28;20655;-66
2021/10/03 09:27:11;;;;;;;8.40;7.70;;;19.30;99.90;;;;;;5071388;28;20699;-66
2021/10/03 09:29:37;;;;;;;7.20;6.63;;;19.30;99.90;;;;;;5048229;28;20253;-67
2021/10/03 09:32:29;;;;;;;7.50;6.97;;;19.40;99.90;;;;;;5052052;28;20841;-68
2021/10/03 09:35:01;;;;;;;7.57;7.07;;;19.40;99.90;;;;;;5068935;28;20186;-68
2021/10/03 09:37:33;;;;;;;7.20;6.70;;;19.40;99.90;;;;;;5067011;28;20233;-67
2021/10/03 09:40:15;;;;;;;6.93;6.43;;;19.50;99.90;;;;;;5054098;28;20226;-67
2021/10/03 09:42:49;;;;;;;7.90;7.40;;;19.50;99.90;;;;;;5054467;28;20549;-67
2021/10/03 09:45:21;;;;;;;7.17;6.67;;;19.60;99.90;;;;;;5054316;28;20207;-67
2021/10/03 09:48:02;;;;;;;7.03;6.53;;;19.70;99.90;;;;;;5054703;28;20187;-67
2021/10/03 09:50:29;;;;;;;7.63;6.93;;;19.70;99.90;;;;;;5086030;22;20646;-64
2021/10/03 09:52:55;;;;;;;7.87;7.20;;;19.70;99.90;;;;;;5072402;28;20228;-63
2021/10/03 09:55:25;;;;;;;7.80;7.13;;;19.80;99.90;;;;;;5073923;28;20165;-66
2021/10/03 09:57:54;;;;;;;6.90;6.30;;;19.80;99.90;;;;;;5074007;28;20643;-62
2021/10/03 10:00:23;;;;;;;7.33;6.80;;;19.90;99.90;;;;;;5073783;28;20240;-65
2021/10/03 10:02:49;;;;;;;7.67;7.03;;;19.90;99.90;;;;;;5073633;28;20236;-63
2021/10/03 10:05:14;;;;;;;7.57;6.97;;;19.90;99.90;;;;;;5073956;28;20186;-65
2021/10/03 10:07:41;;;;;;;6.83;6.43;;;19.90;99.90;;;;;;5058360;28;20181;-62
2021/10/03 10:10:08;;;;;;;6.93;6.50;;;19.90;99.90;;;;;;5064372;28;20206;-65
2021/10/03 10:12:58;;;;;;;7.57;7.00;;;19.80;99.90;;;;;;5074191;28;20174;-63
2021/10/03 10:15:25;;;;;;;7.27;6.73;;;19.80;99.90;;;;;;5060309;28;20187;-61
2021/10/03 10:17:51;;;;;;;7.60;7.00;;;19.80;99.90;;;;;;5054020;28;20597;-65
2021/10/03 10:20:17;;;;;;;7.63;7.13;;;19.80;99.90;;;;;;5064645;28;20565;-64
2021/10/03 10:22:59;;;;;;;7.67;7.17;;;19.80;99.90;;;;;;5073965;28;20171;-65
2021/10/03 10:25:43;;;;;;;7.97;7.47;;;19.90;99.90;;;;;;5072995;28;20248;-64
2021/10/03 10:28:11;;;;;;;7.83;7.13;;;20.00;99.90;;;;;;5073667;28;20185;-66
2021/10/03 10:31:04;;;;;;;9.27;8.47;;;20.10;99.90;;;;;;5060158;28;20211;-63
2021/10/03 10:33:49;;;;;;;8.47;7.77;;;20.10;99.90;;;;;;5053694;28;20167;-64
2021/10/03 10:36:23;;;;;;;8.40;7.80;;;20.10;99.90;;;;;;5070907;28;20631;-64
2021/10/03 10:39:19;;;;;;;8.60;7.90;;;20.10;99.90;;;;;;5059011;28;20179;-65
2021/10/03 10:41:51;;;;;;;8.47;7.87;;;20.10;99.90;;;;;;5043900;28;20206;-65
2021/10/03 10:44:28;;;;;;;8.33;7.67;;;20.10;99.90;;;;;;5070729;28;20177;-64
2021/10/03 10:46:58;;;;;;;7.60;7.10;;;20.10;99.90;;;;;;5073310;28;20205;-64
2021/10/03 10:49:25;;;;;;;7.80;7.30;;;20.10;99.90;;;;;;5071233;28;20580;-64
2021/10/03 10:52:18;;;;;;;8.27;7.67;;;20.00;99.90;;;;;;5073336;28;20210;-65
2021/10/03 10:54:59;;;;;;;9.03;8.33;;;20.10;99.90;;;;;;5053337;28;20195;-64
2021/10/03 10:57:26;;;;;;;7.83;7.23;;;20.10;99.90;;;;;;5053523;28;20539;-65
2021/10/03 11:00:27;;;;;;;6.80;6.40;;;20.10;99.90;;;;;;5072095;28;20198;-65
2021/10/03 11:02:58;;;;;;;8.57;7.10;;;20.20;99.90;;;;;;5069154;28;20212;-65
2021/10/03 11:05:46;;;;;;;7.40;6.90;;;20.30;99.90;;;;;;5053287;28;20178;-64
2021/10/03 11:08:19;;;;;;;7.30;6.80;;;20.30;99.90;;;;;;5053101;28;20174;-65
2021/10/03 11:10:57;;;;;;;7.50;7.00;;;20.40;99.90;;;;;;5053918;28;20210;-64
2021/10/03 11:13:38;;;;;;;8.10;7.50;;;20.40;99.90;;;;;;5072839;28;20166;-65
2021/10/03 11:16:23;;;;;;;8.60;8.00;;;20.40;99.90;;;;;;5054113;28;20186;-64
2021/10/03 11:18:55;;;;;;;7.87;7.30;;;20.40;99.90;;;;;;5053005;28;20170;-64
2021/10/03 11:21:35;;;;;;;8.60;8.00;;;20.50;99.90;;;;;;5072574;28;20208;-64
2021/10/03 11:24:05;;;;;;;8.53;7.93;;;20.50;99.90;;;;;;5070806;28;20643;-64
2021/10/03 11:26:48;;;;;;;7.50;7.00;;;20.50;99.90;;;;;;5051927;28;20640;-64
2021/10/03 11:29:15;;;;;;;8.70;8.10;;;20.50;99.90;;;;;;5053119;28;20577;-65
2021/10/03 11:32:05;;;;;;;8.23;7.53;;;20.40;99.90;;;;;;5052323;28;20695;-64
2021/10/03 11:34:36;;;;;;;8.03;7.43;;;20.40;99.90;;;;;;5053885;28;20201;-65
2021/10/03 11:37:12;;;;;;;8.13;7.63;;;20.40;99.90;;;;;;5072342;28;20247;-65
2021/10/03 11:39:45;;;;;;;7.60;7.00;;;20.40;99.90;;;;;;5064843;28;20644;-64
2021/10/03 11:42:16;;;;;;;7.20;6.53;;;20.30;99.90;;;;;;5052464;28;20175;-64
2021/10/03 11:44:43;;;;;;;7.10;6.60;;;20.30;99.90;;;;;;5059335;28;20691;-66
2021/10/03 11:47:11;;;;;;;7.30;6.60;;;20.20;99.90;;;;;;5072089;28;20224;-64
2021/10/03 11:49:39;;;;;;;6.67;6.17;;;20.30;99.90;;;;;;5070276;28;20577;-65
2021/10/03 11:52:07;;;;;;;6.83;6.23;;;20.30;99.90;;;;;;5071866;28;20182;-64
2021/10/03 11:54:34;;;;;;;6.80;6.23;;;20.30;99.90;;;;;;5066704;28;20571;-64
2021/10/03 11:57:29;;;;;;;10.10;8.53;;;20.30;99.90;;;;;;5052245;28;20201;-64
2021/10/03 12:00:09;;;;;;;7.87;7.37;;;20.30;99.90;;;;;;5059148;28;20202;-65
2021/10/03 12:02:41;;;;;;;7.90;7.30;;;20.20;99.90;;;;;;5067263;28;20237;-65
2021/10/03 12:05:08;;;;;;;9.00;8.40;;;20.00;99.90;;;;;;5052162;28;20167;-63
2021/10/03 12:07:34;;;;;;;8.03;7.33;;;19.70;99.90;;;;;;5055880;28;20174;-65
2021/10/03 12:10:10;;;;;;;9.13;8.13;;;19.60;99.90;;;;;;5071365;28;20282;-64
2021/10/03 12:12:49;;;;;;;8.07;7.47;;;19.50;99.90;;;;;;5068058;28;20174;-64
2021/10/03 12:15:41;;;;;;;8.07;7.40;;;19.40;99.90;;;;;;5051728;28;20647;-65
2021/10/03 12:18:08;;;;;;;9.17;8.47;;;19.40;99.90;;;;;;5058823;28;20183;-63
2021/10/03 12:21:05;;;;;;;7.90;7.30;;;19.50;99.90;;;;;;5071649;28;20189;-65
2021/10/03 12:23:46;;;;;;;7.90;7.30;;;19.70;99.90;;;;;;5061288;28;20183;-63
2021/10/03 12:26:26;;;;;;;7.50;6.90;;;19.80;99.90;;;;;;5051538;28;20182;-64
2021/10/03 12:29:01;;;;;;;8.57;7.97;;;20.00;99.90;;;;;;5064253;28;20217;-64
2021/10/03 12:31:53;;;;;;;7.50;6.93;;;20.10;99.90;;;;;;5062037;28;20217;-65
2021/10/03 12:34:21;;;;;;;8.07;7.53;;;20.20;99.90;;;;;;5051741;28;20254;-65
2021/10/03 12:36:50;;;;;;;7.80;7.00;;;20.30;99.90;;;;;;5062692;28;20186;-64
2021/10/03 12:39:20;;;;;;;6.87;6.37;;;20.40;99.90;;;;;;5071747;28;20228;-64
2021/10/03 12:41:46;;;;;;;7.20;6.57;;;20.50;99.90;;;;;;5060479;28;20199;-65
2021/10/03 12:44:11;;;;;;;7.33;6.63;;;20.60;99.90;;;;;;5051645;28;20540;-65
2021/10/03 12:46:37;;;;;;;7.87;7.37;;;20.70;99.90;;;;;;5060018;28;20182;-64
2021/10/03 12:49:03;;;;;;;7.40;6.90;;;20.70;99.90;;;;;;5070995;28;20174;-63
2021/10/03 12:51:29;;;;;;;6.87;6.37;;;20.80;99.90;;;;;;5063552;28;20602;-64
2021/10/03 12:53:54;;;;;;;7.40;6.80;;;20.80;99.90;;;;;;5049969;28;20179;-64
2021/10/03 12:56:20;;;;;;;7.27;6.63;;;20.80;99.90;;;;;;5056522;28;20197;-63